sensor_id;sensor_type;location;lat;lon;timestamp;P1;durP1;ratioP1;P2;durP2;ratioP2
74168;SDS011;62523;53.336;83.690;2023-12-14T00:03:55;7.63;;;4.10;;
74168;SDS011;62523;53.336;83.690;2023-12-14T00:08:56;8.73;;;3.27;;
74168;SDS011;62523;53.336;83.690;2023-12-14T00:13:58;20.85;;;4.90;;
74168;SDS011;62523;53.336;83.690;2023-12-14T00:18:59;14.93;;;3.00;;
74168;SDS011;62523;53.336;83.690;2023-12-14T00:34:04;3.25;;;3.05;;
74168;SDS011;62523;53.336;83.690;2023-12-14T00:39:07;2.57;;;0.93;;
74168;SDS011;62523;53.336;83.690;2023-12-14T00:44:08;4.80;;;2.65;;
74168;SDS011;62523;53.336;83.690;2023-12-14T00:49:10;7.83;;;3.00;;
74168;SDS011;62523;53.336;83.690;2023-12-14T00:54:11;6.68;;;3.25;;
74168;SDS011;62523;53.336;83.690;2023-12-14T00:59:12;10.00;;;3.40;;
74168;SDS011;62523;53.336;83.690;2023-12-14T01:04:14;14.43;;;4.80;;
74168;SDS011;62523;53.336;83.690;2023-12-14T01:09:15;12.60;;;2.17;;
74168;SDS011;62523;53.336;83.690;2023-12-14T01:19:18;8.10;;;4.53;;
74168;SDS011;62523;53.336;83.690;2023-12-14T01:24:19;10.50;;;3.53;;
74168;SDS011;62523;53.336;83.690;2023-12-14T01:29:21;8.50;;;3.72;;
74168;SDS011;62523;53.336;83.690;2023-12-14T01:34:22;15.85;;;3.63;;
74168;SDS011;62523;53.336;83.690;2023-12-14T01:39:23;7.87;;;3.13;;
74168;SDS011;62523;53.336;83.690;2023-12-14T01:44:25;3.88;;;2.42;;
74168;SDS011;62523;53.336;83.690;2023-12-14T01:49:26;11.53;;;4.63;;
74168;SDS011;62523;53.336;83.690;2023-12-14T01:59:29;13.30;;;4.80;;
74168;SDS011;62523;53.336;83.690;2023-12-14T02:04:30;14.90;;;6.20;;
74168;SDS011;62523;53.336;83.690;2023-12-14T02:09:32;14.23;;;3.92;;
74168;SDS011;62523;53.336;83.690;2023-12-14T02:14:33;7.20;;;2.97;;
74168;SDS011;62523;53.336;83.690;2023-12-14T02:19:35;2.63;;;1.92;;
74168;SDS011;62523;53.336;83.690;2023-12-14T02:24:37;3.77;;;1.40;;
74168;SDS011;62523;53.336;83.690;2023-12-14T02:29:38;8.23;;;3.22;;
74168;SDS011;62523;53.336;83.690;2023-12-14T02:34:41;7.07;;;3.70;;
74168;SDS011;62523;53.336;83.690;2023-12-14T02:39:42;6.80;;;2.92;;
74168;SDS011;62523;53.336;83.690;2023-12-14T02:44:43;7.37;;;4.37;;
74168;SDS011;62523;53.336;83.690;2023-12-14T02:49:45;5.40;;;2.50;;
74168;SDS011;62523;53.336;83.690;2023-12-14T02:54:46;6.30;;;3.27;;
74168;SDS011;62523;53.336;83.690;2023-12-14T02:59:48;10.80;;;3.45;;
74168;SDS011;62523;53.336;83.690;2023-12-14T03:04:49;9.57;;;5.27;;
74168;SDS011;62523;53.336;83.690;2023-12-14T03:14:52;7.63;;;2.60;;
74168;SDS011;62523;53.336;83.690;2023-12-14T03:19:53;11.50;;;5.30;;
74168;SDS011;62523;53.336;83.690;2023-12-14T03:29:56;2.93;;;2.13;;
74168;SDS011;62523;53.336;83.690;2023-12-14T03:34:57;8.33;;;3.97;;
74168;SDS011;62523;53.336;83.690;2023-12-14T03:45:00;7.83;;;3.83;;
74168;SDS011;62523;53.336;83.690;2023-12-14T03:50:01;5.43;;;2.10;;
74168;SDS011;62523;53.336;83.690;2023-12-14T03:55:03;11.23;;;3.83;;
74168;SDS011;62523;53.336;83.690;2023-12-14T04:00:05;7.40;;;2.73;;
74168;SDS011;62523;53.336;83.690;2023-12-14T04:05:10;10.57;;;3.70;;
74168;SDS011;62523;53.336;83.690;2023-12-14T04:10:12;7.27;;;3.53;;
74168;SDS011;62523;53.336;83.690;2023-12-14T04:15:14;14.20;;;3.47;;
74168;SDS011;62523;53.336;83.690;2023-12-14T04:20:15;10.07;;;2.90;;
74168;SDS011;62523;53.336;83.690;2023-12-14T04:25:17;14.27;;;4.80;;
74168;SDS011;62523;53.336;83.690;2023-12-14T04:35:20;22.20;;;4.33;;
74168;SDS011;62523;53.336;83.690;2023-12-14T04:40:23;12.33;;;4.07;;
74168;SDS011;62523;53.336;83.690;2023-12-14T04:45:24;8.90;;;5.50;;
74168;SDS011;62523;53.336;83.690;2023-12-14T04:50:25;20.58;;;6.18;;
74168;SDS011;62523;53.336;83.690;2023-12-14T04:55:27;23.08;;;7.38;;
74168;SDS011;62523;53.336;83.690;2023-12-14T05:05:29;5.77;;;4.27;;
74168;SDS011;62523;53.336;83.690;2023-12-14T05:10:31;6.95;;;3.80;;
74168;SDS011;62523;53.336;83.690;2023-12-14T05:25:36;11.50;;;4.43;;
74168;SDS011;62523;53.336;83.690;2023-12-14T05:30:37;10.70;;;4.95;;
74168;SDS011;62523;53.336;83.690;2023-12-14T05:35:39;18.58;;;6.95;;
74168;SDS011;62523;53.336;83.690;2023-12-14T05:45:42;7.50;;;2.85;;
74168;SDS011;62523;53.336;83.690;2023-12-14T05:50:44;12.65;;;3.67;;
74168;SDS011;62523;53.336;83.690;2023-12-14T05:55:45;7.80;;;3.73;;
74168;SDS011;62523;53.336;83.690;2023-12-14T06:00:47;8.95;;;3.58;;
74168;SDS011;62523;53.336;83.690;2023-12-14T06:05:51;11.40;;;4.03;;
74168;SDS011;62523;53.336;83.690;2023-12-14T06:10:53;8.90;;;4.13;;
74168;SDS011;62523;53.336;83.690;2023-12-14T06:15:54;6.47;;;3.20;;
74168;SDS011;62523;53.336;83.690;2023-12-14T06:20:56;9.10;;;3.97;;
74168;SDS011;62523;53.336;83.690;2023-12-14T06:25:58;17.75;;;5.45;;
74168;SDS011;62523;53.336;83.690;2023-12-14T06:36:05;14.50;;;4.93;;
74168;SDS011;62523;53.336;83.690;2023-12-14T06:41:08;13.50;;;4.00;;
74168;SDS011;62523;53.336;83.690;2023-12-14T06:46:18;7.87;;;3.03;;
74168;SDS011;62523;53.336;83.690;2023-12-14T06:51:20;10.75;;;4.82;;
74168;SDS011;62523;53.336;83.690;2023-12-14T07:01:23;7.57;;;1.98;;
74168;SDS011;62523;53.336;83.690;2023-12-14T07:06:33;6.14;;;3.30;;
74168;SDS011;62523;53.336;83.690;2023-12-14T07:11:35;7.30;;;4.00;;
74168;SDS011;62523;53.336;83.690;2023-12-14T07:16:37;22.93;;;3.16;;
74168;SDS011;62523;53.336;83.690;2023-12-14T07:21:39;20.05;;;4.35;;
74168;SDS011;62523;53.336;83.690;2023-12-14T07:26:40;11.57;;;4.00;;
74168;SDS011;62523;53.336;83.690;2023-12-14T07:31:42;6.90;;;2.08;;
74168;SDS011;62523;53.336;83.690;2023-12-14T07:36:44;2.88;;;1.52;;
74168;SDS011;62523;53.336;83.690;2023-12-14T07:41:45;8.43;;;1.80;;
74168;SDS011;62523;53.336;83.690;2023-12-14T07:46:47;2.78;;;2.35;;
74168;SDS011;62523;53.336;83.690;2023-12-14T07:51:49;2.80;;;1.75;;
74168;SDS011;62523;53.336;83.690;2023-12-14T07:56:50;0.95;;;0.95;;
74168;SDS011;62523;53.336;83.690;2023-12-14T08:01:52;6.23;;;3.47;;
74168;SDS011;62523;53.336;83.690;2023-12-14T08:06:53;4.60;;;2.15;;
74168;SDS011;62523;53.336;83.690;2023-12-14T08:16:56;5.60;;;2.33;;
74168;SDS011;62523;53.336;83.690;2023-12-14T08:21:57;8.02;;;2.58;;
74168;SDS011;62523;53.336;83.690;2023-12-14T08:32:01;7.90;;;4.68;;
74168;SDS011;62523;53.336;83.690;2023-12-14T08:37:04;3.40;;;1.97;;
74168;SDS011;62523;53.336;83.690;2023-12-14T08:42:07;8.07;;;3.17;;
74168;SDS011;62523;53.336;83.690;2023-12-14T08:47:09;4.03;;;2.42;;
74168;SDS011;62523;53.336;83.690;2023-12-14T08:52:11;10.00;;;2.93;;
74168;SDS011;62523;53.336;83.690;2023-12-14T08:57:16;8.57;;;2.77;;
74168;SDS011;62523;53.336;83.690;2023-12-14T09:02:17;3.07;;;1.83;;
74168;SDS011;62523;53.336;83.690;2023-12-14T09:07:19;3.20;;;1.73;;
74168;SDS011;62523;53.336;83.690;2023-12-14T09:12:20;4.20;;;2.00;;
74168;SDS011;62523;53.336;83.690;2023-12-14T09:17:22;5.65;;;2.75;;
74168;SDS011;62523;53.336;83.690;2023-12-14T09:27:26;6.40;;;2.33;;
74168;SDS011;62523;53.336;83.690;2023-12-14T09:32:27;8.65;;;3.55;;
74168;SDS011;62523;53.336;83.690;2023-12-14T09:37:29;5.65;;;2.67;;
74168;SDS011;62523;53.336;83.690;2023-12-14T09:42:34;10.80;;;2.90;;
74168;SDS011;62523;53.336;83.690;2023-12-14T09:47:39;13.20;;;2.63;;
74168;SDS011;62523;53.336;83.690;2023-12-14T09:52:42;9.43;;;2.47;;
74168;SDS011;62523;53.336;83.690;2023-12-14T09:57:49;15.73;;;4.22;;
74168;SDS011;62523;53.336;83.690;2023-12-14T10:02:51;3.80;;;2.47;;
74168;SDS011;62523;53.336;83.690;2023-12-14T10:07:52;4.37;;;2.57;;
74168;SDS011;62523;53.336;83.690;2023-12-14T10:12:54;9.43;;;2.22;;
74168;SDS011;62523;53.336;83.690;2023-12-14T10:17:56;18.20;;;3.30;;
74168;SDS011;62523;53.336;83.690;2023-12-14T10:22:58;5.40;;;2.47;;
74168;SDS011;62523;53.336;83.690;2023-12-14T10:28:00;7.13;;;2.57;;
74168;SDS011;62523;53.336;83.690;2023-12-14T10:33:03;5.77;;;3.93;;
74168;SDS011;62523;53.336;83.690;2023-12-14T10:38:07;16.63;;;5.60;;
74168;SDS011;62523;53.336;83.690;2023-12-14T10:43:11;13.07;;;4.60;;
74168;SDS011;62523;53.336;83.690;2023-12-14T10:48:13;6.70;;;3.30;;
74168;SDS011;62523;53.336;83.690;2023-12-14T10:53:15;6.68;;;2.25;;
74168;SDS011;62523;53.336;83.690;2023-12-14T10:58:16;6.23;;;2.10;;
74168;SDS011;62523;53.336;83.690;2023-12-14T11:03:20;6.03;;;3.23;;
74168;SDS011;62523;53.336;83.690;2023-12-14T11:08:22;8.73;;;3.95;;
74168;SDS011;62523;53.336;83.690;2023-12-14T11:13:24;10.53;;;4.13;;
74168;SDS011;62523;53.336;83.690;2023-12-14T11:18:26;9.47;;;6.27;;
74168;SDS011;62523;53.336;83.690;2023-12-14T11:23:30;30.30;;;8.50;;
74168;SDS011;62523;53.336;83.690;2023-12-14T11:28:37;5.17;;;2.20;;
74168;SDS011;62523;53.336;83.690;2023-12-14T11:33:39;18.98;;;4.90;;
74168;SDS011;62523;53.336;83.690;2023-12-14T11:38:41;29.90;;;6.40;;
74168;SDS011;62523;53.336;83.690;2023-12-14T11:43:44;11.97;;;4.97;;
74168;SDS011;62523;53.336;83.690;2023-12-14T11:48:47;20.30;;;3.53;;
74168;SDS011;62523;53.336;83.690;2023-12-14T11:53:52;17.77;;;6.80;;
74168;SDS011;62523;53.336;83.690;2023-12-14T11:58:54;29.93;;;8.23;;
74168;SDS011;62523;53.336;83.690;2023-12-14T12:04:03;24.07;;;6.73;;
74168;SDS011;62523;53.336;83.690;2023-12-14T12:09:11;29.87;;;9.47;;
74168;SDS011;62523;53.336;83.690;2023-12-14T12:14:14;16.90;;;5.50;;
74168;SDS011;62523;53.336;83.690;2023-12-14T12:19:15;24.45;;;5.65;;
74168;SDS011;62523;53.336;83.690;2023-12-14T12:29:18;20.60;;;6.53;;
74168;SDS011;62523;53.336;83.690;2023-12-14T12:34:19;24.02;;;7.07;;
74168;SDS011;62523;53.336;83.690;2023-12-14T12:39:21;24.83;;;8.60;;
74168;SDS011;62523;53.336;83.690;2023-12-14T12:44:22;12.57;;;4.50;;
74168;SDS011;62523;53.336;83.690;2023-12-14T12:49:24;7.53;;;5.07;;
74168;SDS011;62523;53.336;83.690;2023-12-14T12:54:25;12.87;;;5.13;;
74168;SDS011;62523;53.336;83.690;2023-12-14T12:59:27;19.23;;;4.37;;
74168;SDS011;62523;53.336;83.690;2023-12-14T13:04:29;22.48;;;7.72;;
74168;SDS011;62523;53.336;83.690;2023-12-14T13:09:33;24.20;;;7.50;;
74168;SDS011;62523;53.336;83.690;2023-12-14T13:14:35;15.55;;;8.32;;
74168;SDS011;62523;53.336;83.690;2023-12-14T13:19:36;20.97;;;8.23;;
74168;SDS011;62523;53.336;83.690;2023-12-14T13:24:38;15.02;;;5.47;;
74168;SDS011;62523;53.336;83.690;2023-12-14T13:29:44;26.80;;;9.27;;
74168;SDS011;62523;53.336;83.690;2023-12-14T13:39:47;15.20;;;7.00;;
74168;SDS011;62523;53.336;83.690;2023-12-14T13:44:49;12.20;;;5.43;;
74168;SDS011;62523;53.336;83.690;2023-12-14T13:49:51;15.85;;;8.10;;
74168;SDS011;62523;53.336;83.690;2023-12-14T13:54:53;22.63;;;7.23;;
74168;SDS011;62523;53.336;83.690;2023-12-14T13:59:56;16.37;;;6.23;;
74168;SDS011;62523;53.336;83.690;2023-12-14T14:04:58;13.38;;;7.38;;
74168;SDS011;62523;53.336;83.690;2023-12-14T14:09:59;31.97;;;8.73;;
74168;SDS011;62523;53.336;83.690;2023-12-14T14:15:00;19.70;;;6.68;;
74168;SDS011;62523;53.336;83.690;2023-12-14T14:20:04;26.77;;;6.67;;
74168;SDS011;62523;53.336;83.690;2023-12-14T14:25:07;20.03;;;5.93;;
74168;SDS011;62523;53.336;83.690;2023-12-14T14:30:09;27.98;;;5.88;;
74168;SDS011;62523;53.336;83.690;2023-12-14T14:35:11;12.03;;;4.77;;
74168;SDS011;62523;53.336;83.690;2023-12-14T14:40:13;17.00;;;7.55;;
74168;SDS011;62523;53.336;83.690;2023-12-14T14:45:15;16.83;;;5.95;;
74168;SDS011;62523;53.336;83.690;2023-12-14T14:50:17;18.40;;;5.25;;
74168;SDS011;62523;53.336;83.690;2023-12-14T15:00:22;27.93;;;8.80;;
74168;SDS011;62523;53.336;83.690;2023-12-14T15:05:24;15.35;;;6.38;;
74168;SDS011;62523;53.336;83.690;2023-12-14T15:10:26;15.23;;;6.30;;
74168;SDS011;62523;53.336;83.690;2023-12-14T15:20:28;37.17;;;4.33;;
74168;SDS011;62523;53.336;83.690;2023-12-14T15:25:30;26.97;;;7.73;;
74168;SDS011;62523;53.336;83.690;2023-12-14T15:30:35;10.97;;;4.77;;
74168;SDS011;62523;53.336;83.690;2023-12-14T15:35:36;16.67;;;5.90;;
74168;SDS011;62523;53.336;83.690;2023-12-14T15:40:38;8.55;;;4.75;;
74168;SDS011;62523;53.336;83.690;2023-12-14T15:45:39;9.13;;;4.20;;
74168;SDS011;62523;53.336;83.690;2023-12-14T15:50:41;24.85;;;5.70;;
74168;SDS011;62523;53.336;83.690;2023-12-14T15:55:42;19.07;;;3.77;;
74168;SDS011;62523;53.336;83.690;2023-12-14T16:00:44;14.32;;;4.30;;
74168;SDS011;62523;53.336;83.690;2023-12-14T16:05:46;10.68;;;5.70;;
74168;SDS011;62523;53.336;83.690;2023-12-14T16:10:48;23.37;;;4.90;;
74168;SDS011;62523;53.336;83.690;2023-12-14T16:15:51;9.83;;;4.07;;
74168;SDS011;62523;53.336;83.690;2023-12-14T16:20:53;9.80;;;4.47;;
74168;SDS011;62523;53.336;83.690;2023-12-14T16:31:01;23.60;;;8.73;;
74168;SDS011;62523;53.336;83.690;2023-12-14T16:36:12;23.05;;;8.88;;
74168;SDS011;62523;53.336;83.690;2023-12-14T16:41:19;19.60;;;7.55;;
74168;SDS011;62523;53.336;83.690;2023-12-14T16:46:22;31.70;;;7.45;;
74168;SDS011;62523;53.336;83.690;2023-12-14T16:51:33;15.18;;;6.91;;
74168;SDS011;62523;53.336;83.690;2023-12-14T16:56:34;13.16;;;6.70;;
74168;SDS011;62523;53.336;83.690;2023-12-14T17:01:35;30.15;;;7.33;;
74168;SDS011;62523;53.336;83.690;2023-12-14T17:06:40;20.97;;;8.23;;
74168;SDS011;62523;53.336;83.690;2023-12-14T17:11:41;13.27;;;6.22;;
74168;SDS011;62523;53.336;83.690;2023-12-14T17:16:44;33.92;;;12.65;;
74168;SDS011;62523;53.336;83.690;2023-12-14T17:21:46;19.45;;;6.43;;
74168;SDS011;62523;53.336;83.690;2023-12-14T17:26:50;18.27;;;7.93;;
74168;SDS011;62523;53.336;83.690;2023-12-14T17:36:53;15.10;;;5.95;;
74168;SDS011;62523;53.336;83.690;2023-12-14T17:41:54;18.35;;;7.45;;
74168;SDS011;62523;53.336;83.690;2023-12-14T17:46:56;10.07;;;5.50;;
74168;SDS011;62523;53.336;83.690;2023-12-14T17:51:57;13.80;;;4.93;;
74168;SDS011;62523;53.336;83.690;2023-12-14T18:02:00;10.10;;;6.35;;
74168;SDS011;62523;53.336;83.690;2023-12-14T18:07:01;18.05;;;8.23;;
74168;SDS011;62523;53.336;83.690;2023-12-14T18:17:04;12.65;;;5.80;;
74168;SDS011;62523;53.336;83.690;2023-12-14T18:22:05;18.03;;;6.43;;
74168;SDS011;62523;53.336;83.690;2023-12-14T18:27:07;14.55;;;6.93;;
74168;SDS011;62523;53.336;83.690;2023-12-14T18:32:08;15.50;;;5.72;;
74168;SDS011;62523;53.336;83.690;2023-12-14T18:37:09;17.13;;;6.20;;
74168;SDS011;62523;53.336;83.690;2023-12-14T18:42:20;13.25;;;5.03;;
74168;SDS011;62523;53.336;83.690;2023-12-14T18:47:22;22.45;;;7.35;;
74168;SDS011;62523;53.336;83.690;2023-12-14T18:52:24;13.07;;;6.63;;
74168;SDS011;62523;53.336;83.690;2023-12-14T18:57:25;11.35;;;5.82;;
74168;SDS011;62523;53.336;83.690;2023-12-14T19:02:27;41.20;;;8.25;;
74168;SDS011;62523;53.336;83.690;2023-12-14T19:07:28;16.30;;;8.07;;
74168;SDS011;62523;53.336;83.690;2023-12-14T19:12:29;9.20;;;4.95;;
74168;SDS011;62523;53.336;83.690;2023-12-14T19:17:31;11.63;;;3.65;;
74168;SDS011;62523;53.336;83.690;2023-12-14T19:22:32;6.50;;;2.33;;
74168;SDS011;62523;53.336;83.690;2023-12-14T19:27:35;8.45;;;2.85;;
74168;SDS011;62523;53.336;83.690;2023-12-14T19:32:37;7.20;;;3.78;;
74168;SDS011;62523;53.336;83.690;2023-12-14T19:37:40;8.95;;;3.67;;
74168;SDS011;62523;53.336;83.690;2023-12-14T19:42:43;6.93;;;2.53;;
74168;SDS011;62523;53.336;83.690;2023-12-14T19:47:44;12.07;;;4.90;;
74168;SDS011;62523;53.336;83.690;2023-12-14T19:52:45;6.18;;;3.03;;
74168;SDS011;62523;53.336;83.690;2023-12-14T19:57:47;8.93;;;4.95;;
74168;SDS011;62523;53.336;83.690;2023-12-14T20:02:50;7.05;;;3.83;;
74168;SDS011;62523;53.336;83.690;2023-12-14T20:07:52;14.07;;;5.70;;
74168;SDS011;62523;53.336;83.690;2023-12-14T20:12:53;10.88;;;5.97;;
74168;SDS011;62523;53.336;83.690;2023-12-14T20:17:55;8.02;;;5.00;;
74168;SDS011;62523;53.336;83.690;2023-12-14T20:22:57;13.35;;;6.43;;
74168;SDS011;62523;53.336;83.690;2023-12-14T20:27:58;10.32;;;5.85;;
74168;SDS011;62523;53.336;83.690;2023-12-14T20:33:00;10.52;;;5.10;;
74168;SDS011;62523;53.336;83.690;2023-12-14T20:38:03;16.67;;;5.78;;
74168;SDS011;62523;53.336;83.690;2023-12-14T20:43:07;11.23;;;4.72;;
74168;SDS011;62523;53.336;83.690;2023-12-14T20:48:09;15.57;;;5.32;;
74168;SDS011;62523;53.336;83.690;2023-12-14T20:53:11;17.33;;;5.80;;
74168;SDS011;62523;53.336;83.690;2023-12-14T20:58:12;15.07;;;4.72;;
74168;SDS011;62523;53.336;83.690;2023-12-14T21:03:13;10.18;;;5.20;;
74168;SDS011;62523;53.336;83.690;2023-12-14T21:08:15;8.23;;;3.83;;
74168;SDS011;62523;53.336;83.690;2023-12-14T21:13:17;7.03;;;3.92;;
74168;SDS011;62523;53.336;83.690;2023-12-14T21:18:18;9.25;;;4.78;;
74168;SDS011;62523;53.336;83.690;2023-12-14T21:23:19;8.68;;;5.47;;
74168;SDS011;62523;53.336;83.690;2023-12-14T21:28:21;11.90;;;4.88;;
74168;SDS011;62523;53.336;83.690;2023-12-14T21:33:23;24.90;;;9.88;;
74168;SDS011;62523;53.336;83.690;2023-12-14T21:38:25;17.05;;;7.22;;
74168;SDS011;62523;53.336;83.690;2023-12-14T21:43:26;11.55;;;5.65;;
74168;SDS011;62523;53.336;83.690;2023-12-14T21:48:28;18.80;;;7.05;;
74168;SDS011;62523;53.336;83.690;2023-12-14T21:53:29;20.23;;;6.72;;
74168;SDS011;62523;53.336;83.690;2023-12-14T21:58:31;11.27;;;6.65;;
74168;SDS011;62523;53.336;83.690;2023-12-14T22:03:32;11.15;;;6.60;;
74168;SDS011;62523;53.336;83.690;2023-12-14T22:08:34;12.57;;;6.40;;
74168;SDS011;62523;53.336;83.690;2023-12-14T22:13:35;16.52;;;6.60;;
74168;SDS011;62523;53.336;83.690;2023-12-14T22:23:37;16.40;;;6.10;;
74168;SDS011;62523;53.336;83.690;2023-12-14T22:28:39;18.35;;;6.05;;
74168;SDS011;62523;53.336;83.690;2023-12-14T22:38:41;13.57;;;6.97;;
74168;SDS011;62523;53.336;83.690;2023-12-14T22:43:43;15.95;;;8.57;;
74168;SDS011;62523;53.336;83.690;2023-12-14T22:53:46;9.07;;;5.20;;
74168;SDS011;62523;53.336;83.690;2023-12-14T22:58:48;12.18;;;5.47;;
74168;SDS011;62523;53.336;83.690;2023-12-14T23:03:50;11.75;;;5.63;;
74168;SDS011;62523;53.336;83.690;2023-12-14T23:08:51;11.07;;;5.57;;
74168;SDS011;62523;53.336;83.690;2023-12-14T23:13:53;11.63;;;5.45;;
74168;SDS011;62523;53.336;83.690;2023-12-14T23:23:56;24.33;;;5.63;;
74168;SDS011;62523;53.336;83.690;2023-12-14T23:33:58;19.50;;;7.80;;
74168;SDS011;62523;53.336;83.690;2023-12-14T23:39:00;11.48;;;6.25;;
74168;SDS011;62523;53.336;83.690;2023-12-14T23:44:01;16.27;;;5.27;;
74168;SDS011;62523;53.336;83.690;2023-12-14T23:49:03;17.73;;;6.28;;
74168;SDS011;62523;53.336;83.690;2023-12-14T23:54:04;14.93;;;6.60;;
74168;SDS011;62523;53.336;83.690;2023-12-14T23:59:06;12.75;;;6.25;;
